Terminal Aerodrome Forecast
Issued by NWS

Home | Current Version | Previous Version | Text Only | Print | Product List | Glossary Off
Versions: 1 2 3 4 5 6 7 8 9 10 11 12 13

000
FTUS43 KIWX 201100
TAFSBN
TAF
KSBN 201120Z 2012/2112 VRB03KT P6SM BKN060
     FM201500 VRB03KT P6SM SCT040
     FM202100 31005KT P6SM SCT050
     FM210500 16003KT P6SM SKC=

USA.gov is the U.S. government's official web portal to all federal, state and local government web resources and services.